Time;durP1;ratioP1;P1;durP2;ratioP2;P2;SDS_P1;SDS_P2;PMS_P1;PMS_P2;Temp;Humidity;BMP_temperature;BMP_pressure;BME280_temperature;BME280_humidity;BME280_pressure;Samples;Min_cycle;Max_cycle;Signal;HPM_P1;HPM_P2
2024/01/27 00:00:09;;;;;;;24.10;6.00;;;5.80;1.00;;;;;;5075580;28;20411;-70
2024/01/27 00:02:35;;;;;;;16.03;4.63;;;5.80;1.00;;;;;;5075932;28;20411;-78
2024/01/27 00:05:02;;;;;;;36.40;5.97;;;5.90;1.00;;;;;;5056737;28;20466;-70
2024/01/27 00:07:28;;;;;;;22.00;5.93;;;5.90;1.00;;;;;;5075679;28;20519;-70
2024/01/27 00:09:55;;;;;;;22.37;6.07;;;5.90;1.00;;;;;;5075719;28;20401;-77
2024/01/27 00:12:21;;;;;;;27.93;6.00;;;5.90;1.00;;;;;;5075736;28;20389;-77
2024/01/27 00:14:46;;;;;;;22.67;5.67;;;5.80;1.00;;;;;;5074665;28;20500;-71
2024/01/27 00:17:12;;;;;;;31.07;6.40;;;5.90;1.00;;;;;;5075559;28;20405;-71
2024/01/27 00:19:38;;;;;;;17.03;4.77;;;5.90;1.00;;;;;;5075599;28;20213;-71
2024/01/27 00:22:04;;;;;;;29.33;5.57;;;5.90;1.00;;;;;;5057787;28;20270;-75
2024/01/27 00:24:30;;;;;;;25.17;5.97;;;5.90;1.00;;;;;;5074380;28;20483;-77
2024/01/27 00:26:55;;;;;;;26.37;6.27;;;5.90;1.00;;;;;;5075433;28;20399;-70
2024/01/27 00:29:22;;;;;;;18.30;6.00;;;5.80;1.00;;;;;;5075122;28;20176;-70
2024/01/27 00:31:49;;;;;;;17.83;4.13;;;5.80;1.00;;;;;;5075366;28;20546;-78
2024/01/27 00:34:14;;;;;;;27.83;5.87;;;5.90;1.00;;;;;;5074384;28;20421;-77
2024/01/27 00:36:42;;;;;;;19.03;6.20;;;5.80;1.00;;;;;;5075249;28;20461;-70
2024/01/27 00:39:08;;;;;;;26.20;5.43;;;5.80;1.00;;;;;;5075080;28;20646;-76
2024/01/27 00:41:34;;;;;;;17.10;5.93;;;5.70;1.00;;;;;;5057199;28;20431;-70
2024/01/27 00:43:59;;;;;;;22.13;5.27;;;5.70;1.00;;;;;;5074074;28;20448;-70
2024/01/27 00:46:25;;;;;;;26.93;5.97;;;5.60;1.00;;;;;;5075062;28;20166;-77
2024/01/27 00:48:52;;;;;;;18.80;5.57;;;5.70;1.00;;;;;;5075009;28;20166;-78
2024/01/27 00:51:17;;;;;;;23.93;6.20;;;5.60;1.00;;;;;;5074838;28;20655;-72
2024/01/27 00:53:43;;;;;;;21.50;5.87;;;5.60;1.00;;;;;;5056315;28;20412;-77
2024/01/27 00:56:09;;;;;;;20.33;5.80;;;5.60;1.00;;;;;;5074781;28;20193;-77
2024/01/27 00:58:34;;;;;;;17.17;6.73;;;5.60;1.00;;;;;;5074826;28;20161;-77
2024/01/27 01:01:01;;;;;;;28.83;7.40;;;5.60;1.00;;;;;;5074765;28;20416;-70
2024/01/27 01:03:26;;;;;;;27.67;7.37;;;5.60;1.00;;;;;;5073687;28;20623;-78
2024/01/27 01:05:52;;;;;;;20.80;5.90;;;5.60;1.00;;;;;;5056359;28;20468;-72
2024/01/27 01:08:18;;;;;;;17.43;5.63;;;5.60;1.00;;;;;;5074657;28;20169;-77
2024/01/27 01:10:44;;;;;;;38.17;5.40;;;5.60;1.00;;;;;;5074119;28;20404;-69
2024/01/27 01:13:10;;;;;;;20.77;5.17;;;5.50;1.00;;;;;;5055907;28;20307;-69
2024/01/27 01:15:35;;;;;;;29.83;7.00;;;5.50;1.00;;;;;;5074266;28;20186;-70
2024/01/27 01:18:01;;;;;;;22.50;7.30;;;5.50;1.00;;;;;;5074063;28;20178;-78
2024/01/27 01:20:27;;;;;;;21.60;5.50;;;5.40;1.00;;;;;;5074395;28;20173;-71
2024/01/27 01:22:53;;;;;;;24.30;4.43;;;5.50;1.00;;;;;;5073446;28;20620;-70
2024/01/27 01:25:19;;;;;;;20.87;4.90;;;5.50;1.00;;;;;;5074225;28;20539;-77
2024/01/27 01:27:49;;;;;;;24.73;5.20;;;5.50;1.00;;;;;;5074130;28;20193;-71
2024/01/27 01:30:15;;;;;;;22.10;6.43;;;5.50;1.00;;;;;;5074176;28;20158;-77
2024/01/27 01:32:41;;;;;;;27.03;6.07;;;5.40;1.00;;;;;;5056031;28;20408;-77
2024/01/27 01:35:07;;;;;;;41.50;7.63;;;5.40;1.00;;;;;;5073243;28;20428;-78
2024/01/27 01:37:32;;;;;;;20.83;6.60;;;5.50;1.00;;;;;;5074054;28;20642;-70
2024/01/27 01:39:58;;;;;;;11.50;4.60;;;5.50;1.00;;;;;;5073655;28;20209;-70
2024/01/27 01:42:24;;;;;;;19.13;5.40;;;5.60;1.00;;;;;;5056073;28;20181;-75
2024/01/27 01:44:53;;;;;;;21.40;5.40;;;5.60;1.00;;;;;;5072896;28;20510;-70
2024/01/27 01:47:19;;;;;;;18.13;4.70;;;5.60;1.00;;;;;;5073919;28;20393;-70
2024/01/27 01:49:45;;;;;;;21.00;6.30;;;5.60;1.00;;;;;;5073652;28;20499;-78
2024/01/27 01:52:11;;;;;;;34.83;6.53;;;5.70;1.00;;;;;;5073738;28;20170;-78
2024/01/27 01:54:37;;;;;;;30.13;6.07;;;5.70;1.00;;;;;;5072796;28;20221;-78
2024/01/27 01:57:04;;;;;;;34.87;5.77;;;5.70;1.00;;;;;;5056106;28;20761;-78
2024/01/27 01:59:29;;;;;;;18.03;4.63;;;5.60;1.00;;;;;;5073698;28;20390;-78
2024/01/27 02:01:55;;;;;;;27.90;6.23;;;5.70;1.00;;;;;;5055901;28;20408;-71
2024/01/27 02:04:21;;;;;;;17.43;4.70;;;5.60;1.00;;;;;;5072606;28;20247;-70
2024/01/27 02:06:46;;;;;;;18.23;5.30;;;5.60;1.00;;;;;;5055561;28;20189;-78
2024/01/27 02:09:12;;;;;;;29.30;6.23;;;5.60;1.00;;;;;;5073559;28;20250;-77
2024/01/27 02:11:38;;;;;;;22.87;5.37;;;5.60;1.00;;;;;;5073500;28;20401;-78
2024/01/27 02:14:04;;;;;;;26.13;5.83;;;5.60;1.00;;;;;;5072384;28;20401;-70
2024/01/27 02:16:30;;;;;;;11.77;5.23;;;5.60;1.00;;;;;;5073520;28;20202;-77
2024/01/27 02:18:55;;;;;;;22.93;5.40;;;5.60;1.00;;;;;;5073429;28;20909;-78
2024/01/27 02:21:21;;;;;;;22.00;5.20;;;5.70;1.00;;;;;;5072644;28;20170;-70
2024/01/27 02:23:47;;;;;;;21.80;6.80;;;5.70;1.00;;;;;;5072314;28;20166;-75
2024/01/27 02:26:12;;;;;;;21.20;5.33;;;5.70;1.00;;;;;;5055307;28;20176;-78
2024/01/27 02:28:38;;;;;;;33.03;6.70;;;5.80;1.00;;;;;;5073349;28;20170;-70
2024/01/27 02:31:04;;;;;;;22.37;6.17;;;5.90;1.00;;;;;;5073309;28;20241;-77
2024/01/27 02:33:30;;;;;;;18.97;6.37;;;5.90;1.00;;;;;;5072352;28;20205;-77
2024/01/27 02:35:55;;;;;;;29.50;6.13;;;5.90;1.00;;;;;;5073165;28;20201;-70
2024/01/27 02:38:21;;;;;;;30.53;6.77;;;5.90;1.00;;;;;;5055339;28;20518;-78
2024/01/27 02:40:47;;;;;;;26.43;5.67;;;5.90;1.00;;;;;;5073253;28;20212;-77
2024/01/27 02:43:13;;;;;;;29.93;7.70;;;5.90;1.00;;;;;;5072301;28;20531;-78
2024/01/27 02:45:40;;;;;;;30.13;7.07;;;5.90;1.00;;;;;;5055287;28;20222;-78
2024/01/27 02:48:06;;;;;;;24.07;6.63;;;5.90;1.00;;;;;;5073018;28;20396;-70
2024/01/27 02:50:31;;;;;;;28.97;6.30;;;5.90;1.00;;;;;;5072544;28;20196;-77
2024/01/27 02:52:57;;;;;;;21.60;4.67;;;6.00;1.00;;;;;;5072205;28;20457;-70
2024/01/27 02:55:23;;;;;;;18.63;5.43;;;6.00;1.00;;;;;;5072982;28;20193;-69
2024/01/27 02:57:48;;;;;;;20.50;6.80;;;6.00;1.00;;;;;;5055386;28;20605;-70
2024/01/27 03:00:14;;;;;;;23.10;7.00;;;6.00;1.00;;;;;;5072946;28;20186;-72
2024/01/27 03:02:40;;;;;;;27.50;6.40;;;6.00;1.00;;;;;;5055001;28;20209;-76
2024/01/27 03:05:06;;;;;;;24.53;5.93;;;6.00;1.00;;;;;;5072090;28;21024;-77
2024/01/27 03:07:31;;;;;;;20.10;5.23;;;6.00;1.00;;;;;;5072887;28;20210;-76
2024/01/27 03:09:57;;;;;;;22.00;5.60;;;6.00;1.00;;;;;;5072936;28;20424;-77
2024/01/27 03:12:23;;;;;;;31.07;6.33;;;6.00;1.00;;;;;;5072835;28;20170;-71
2024/01/27 03:14:50;;;;;;;48.37;8.50;;;6.00;1.00;;;;;;5071828;28;20611;-70
2024/01/27 03:17:16;;;;;;;35.10;7.57;;;6.10;1.00;;;;;;5072839;28;20335;-78
2024/01/27 03:19:42;;;;;;;22.63;6.00;;;6.10;1.00;;;;;;5072925;28;20868;-71
2024/01/27 03:22:07;;;;;;;28.53;6.23;;;6.10;1.00;;;;;;5072850;28;20178;-77
2024/01/27 03:24:33;;;;;;;29.77;6.10;;;6.10;1.00;;;;;;5071667;28;20206;-71
2024/01/27 03:26:59;;;;;;;23.70;9.30;;;6.10;1.00;;;;;;5072775;28;20193;-70
2024/01/27 03:29:24;;;;;;;25.43;5.60;;;6.20;1.00;;;;;;5072800;28;20193;-78
2024/01/27 03:31:50;;;;;;;43.13;8.00;;;6.20;1.00;;;;;;5054987;28;20253;-70
2024/01/27 03:34:17;;;;;;;24.60;5.90;;;6.20;1.00;;;;;;5075333;28;20197;-70
2024/01/27 03:36:43;;;;;;;38.50;6.70;;;6.20;1.00;;;;;;5076269;28;20166;-77
2024/01/27 03:39:09;;;;;;;40.83;6.40;;;6.30;1.00;;;;;;5058341;28;20792;-74
2024/01/27 03:41:34;;;;;;;28.83;6.50;;;6.30;1.00;;;;;;5076402;28;20170;-70
2024/01/27 03:44:00;;;;;;;34.40;7.63;;;6.20;1.00;;;;;;5075285;28;20275;-77
2024/01/27 03:46:26;;;;;;;31.90;6.70;;;6.30;1.00;;;;;;5076109;28;20167;-70
2024/01/27 03:48:52;;;;;;;20.93;5.70;;;6.30;1.00;;;;;;5076096;28;20434;-77
2024/01/27 03:51:18;;;;;;;19.40;6.57;;;6.30;1.00;;;;;;5076114;28;20821;-72
2024/01/27 03:53:43;;;;;;;29.93;7.43;;;6.30;1.00;;;;;;5075194;28;20178;-77
2024/01/27 03:56:12;;;;;;;14.60;4.43;;;6.30;1.00;;;;;;5075913;28;20195;-78
2024/01/27 03:58:38;;;;;;;29.30;5.30;;;6.30;1.00;;;;;;5075968;28;20181;-71
2024/01/27 04:01:04;;;;;;;39.23;5.00;;;6.30;1.00;;;;;;5075822;28;20488;-77
2024/01/27 04:03:30;;;;;;;33.93;5.23;;;6.30;1.00;;;;;;5057050;28;20409;-78
2024/01/27 04:05:55;;;;;;;20.97;5.60;;;6.40;1.00;;;;;;5057720;28;20464;-70
2024/01/27 04:08:21;;;;;;;24.53;5.30;;;6.40;1.00;;;;;;5075861;28;20188;-77
2024/01/27 04:10:47;;;;;;;23.10;6.80;;;6.40;1.00;;;;;;5075741;28;20211;-69
2024/01/27 04:13:13;;;;;;;19.80;5.17;;;6.40;1.00;;;;;;5074859;28;20170;-70
2024/01/27 04:15:38;;;;;;;32.93;5.97;;;6.30;1.00;;;;;;5075582;28;20642;-71
2024/01/27 04:18:08;;;;;;;46.97;6.63;;;6.30;1.00;;;;;;5075657;28;20223;-70
2024/01/27 04:20:34;;;;;;;28.33;6.90;;;6.40;1.00;;;;;;5075601;28;20212;-70
2024/01/27 04:23:01;;;;;;;26.27;5.60;;;6.40;1.00;;;;;;5074553;28;20420;-77
2024/01/27 04:25:26;;;;;;;35.23;6.33;;;6.40;1.00;;;;;;5075354;28;20458;-77
2024/01/27 04:27:53;;;;;;;24.40;6.50;;;6.40;1.00;;;;;;5075442;28;20411;-78
2024/01/27 04:30:18;;;;;;;25.03;7.20;;;6.40;1.00;;;;;;5075364;28;20254;-70
2024/01/27 04:32:44;;;;;;;22.63;6.27;;;6.40;1.00;;;;;;5075310;28;20797;-78
2024/01/27 04:35:10;;;;;;;23.80;5.43;;;6.40;1.00;;;;;;5074382;28;20217;-76
2024/01/27 04:37:36;;;;;;;29.87;5.47;;;6.40;1.00;;;;;;5075368;28;20173;-78
2024/01/27 04:40:06;;;;;;;16.47;5.90;;;6.40;1.00;;;;;;5057262;28;20417;-78
2024/01/27 04:42:34;;;;;;;24.37;6.40;;;6.30;1.00;;;;;;5075146;28;20416;-77
2024/01/27 04:45:00;;;;;;;16.30;5.30;;;6.30;1.00;;;;;;5055131;28;20537;-73
2024/01/27 04:47:25;;;;;;;25.30;5.33;;;6.20;1.00;;;;;;5075005;28;20397;-70
2024/01/27 04:49:51;;;;;;;16.10;5.63;;;6.20;1.00;;;;;;5075000;28;20397;-78
2024/01/27 04:52:17;;;;;;;20.13;5.90;;;6.20;1.00;;;;;;5074958;28;20411;-70
2024/01/27 04:54:43;;;;;;;10.63;5.00;;;6.20;1.00;;;;;;5073930;28;20198;-71
2024/01/27 04:57:09;;;;;;;18.03;6.10;;;6.10;1.00;;;;;;5074840;28;20173;-77
2024/01/27 04:59:35;;;;;;;16.30;6.27;;;6.20;1.00;;;;;;5074754;28;20839;-74
2024/01/27 05:02:01;;;;;;;16.13;6.67;;;6.10;1.00;;;;;;5074765;28;20401;-78
2024/01/27 05:04:27;;;;;;;23.77;5.80;;;6.10;1.00;;;;;;5073712;28;20516;-70
2024/01/27 05:06:53;;;;;;;23.23;5.50;;;6.10;1.00;;;;;;5074647;28;20650;-70
2024/01/27 05:09:18;;;;;;;25.20;6.47;;;6.10;1.00;;;;;;5056613;28;20449;-77
2024/01/27 05:11:45;;;;;;;19.60;6.17;;;6.10;1.00;;;;;;5074527;28;20178;-70
2024/01/27 05:14:11;;;;;;;23.10;7.40;;;6.10;1.00;;;;;;5073722;28;20209;-78
2024/01/27 05:16:37;;;;;;;17.50;5.37;;;6.00;1.00;;;;;;5056520;28;20925;-70
2024/01/27 05:19:02;;;;;;;24.33;5.07;;;6.00;1.00;;;;;;5074493;28;20175;-70
2024/01/27 05:21:28;;;;;;;23.70;5.10;;;6.00;1.00;;;;;;5056605;28;20182;-71
2024/01/27 05:23:54;;;;;;;25.50;5.97;;;6.00;1.00;;;;;;5073294;28;20166;-70
2024/01/27 05:26:21;;;;;;;16.03;5.30;;;6.10;1.00;;;;;;5074294;28;20627;-71
2024/01/27 05:28:46;;;;;;;19.73;5.43;;;6.10;1.00;;;;;;5074236;28;20380;-70
2024/01/27 05:31:12;;;;;;;17.57;5.60;;;6.20;1.00;;;;;;5074218;28;20426;-69
2024/01/27 05:33:39;;;;;;;19.47;5.57;;;6.10;1.00;;;;;;5073090;28;20176;-74
2024/01/27 05:36:05;;;;;;;20.10;6.30;;;6.20;1.00;;;;;;5074014;28;20578;-78
2024/01/27 05:38:31;;;;;;;36.33;7.40;;;6.10;1.00;;;;;;5074014;28;20440;-78
2024/01/27 05:41:01;;;;;;;17.83;5.40;;;6.10;1.00;;;;;;5074044;28;20404;-71
2024/01/27 05:43:27;;;;;;;16.60;5.37;;;6.00;1.00;;;;;;5055188;28;20412;-70
2024/01/27 05:45:53;;;;;;;25.40;6.77;;;6.00;1.00;;;;;;5073719;28;21221;-78
2024/01/27 05:48:19;;;;;;;50.07;6.80;;;6.00;1.00;;;;;;5073832;28;20405;-71
2024/01/27 05:50:56;;;;;;;34.73;7.50;;;6.00;1.00;;;;;;5073904;28;20174;-78
2024/01/27 05:53:22;;;;;;;18.63;7.60;;;6.00;1.00;;;;;;5072866;28;20453;-72
2024/01/27 05:55:47;;;;;;;36.90;6.73;;;6.00;1.00;;;;;;5073465;28;20424;-78
2024/01/27 05:58:13;;;;;;;27.87;6.60;;;6.00;1.00;;;;;;5055806;28;20751;-71
2024/01/27 06:00:39;;;;;;;25.00;6.93;;;6.00;1.00;;;;;;5056043;28;20223;-70
2024/01/27 06:03:05;;;;;;;19.50;6.00;;;6.00;1.00;;;;;;5072765;28;20174;-70
2024/01/27 06:05:30;;;;;;;18.83;7.30;;;6.00;1.00;;;;;;5073412;28;20217;-77
2024/01/27 06:07:56;;;;;;;23.33;6.67;;;6.00;1.00;;;;;;5073454;28;20383;-75
2024/01/27 06:10:23;;;;;;;27.03;5.37;;;6.00;1.00;;;;;;5073519;28;20527;-78
2024/01/27 06:12:49;;;;;;;26.63;6.20;;;6.10;1.00;;;;;;5072862;28;20215;-75
2024/01/27 06:15:15;;;;;;;33.60;6.30;;;6.10;1.00;;;;;;5073437;28;20420;-78
2024/01/27 06:17:41;;;;;;;22.27;6.10;;;6.00;1.00;;;;;;5055467;28;20303;-70
2024/01/27 06:20:07;;;;;;;15.57;6.07;;;6.00;1.00;;;;;;5073350;28;20866;-70
2024/01/27 06:22:33;;;;;;;64.13;7.43;;;6.10;1.00;;;;;;5073366;28;20227;-71
2024/01/27 06:24:59;;;;;;;33.03;5.63;;;6.10;1.00;;;;;;5072318;28;20538;-77
2024/01/27 06:27:24;;;;;;;24.93;5.47;;;6.10;1.00;;;;;;5073314;28;20535;-69
2024/01/27 06:29:50;;;;;;;21.27;5.57;;;6.10;1.00;;;;;;5073301;28;20903;-70
2024/01/27 06:32:16;;;;;;;27.13;6.37;;;6.10;1.00;;;;;;5072949;28;20174;-69
2024/01/27 06:34:41;;;;;;;30.33;5.23;;;6.10;1.00;;;;;;5054311;28;20233;-77
2024/01/27 06:37:07;;;;;;;26.10;7.83;;;6.10;1.00;;;;;;5073239;28;20228;-76
2024/01/27 06:39:33;;;;;;;26.27;5.63;;;6.10;1.00;;;;;;5055244;28;20181;-78
2024/01/27 06:41:58;;;;;;;23.13;5.10;;;6.00;1.00;;;;;;5055464;28;20238;-69
2024/01/27 06:44:24;;;;;;;16.70;5.37;;;6.00;1.00;;;;;;5072103;28;20205;-72
2024/01/27 06:46:50;;;;;;;23.90;5.80;;;6.00;1.00;;;;;;5073259;28;20173;-72
2024/01/27 06:49:16;;;;;;;26.83;6.10;;;6.00;1.00;;;;;;5055135;28;20170;-77
2024/01/27 06:51:43;;;;;;;26.73;6.13;;;6.00;1.00;;;;;;5073085;28;20400;-70
2024/01/27 06:54:09;;;;;;;23.90;5.73;;;6.00;1.00;;;;;;5071987;28;20820;-70
2024/01/27 06:56:35;;;;;;;27.63;6.40;;;6.00;1.00;;;;;;5072970;28;20511;-75
2024/01/27 06:59:00;;;;;;;29.07;5.83;;;6.00;1.00;;;;;;5073040;28;20223;-77
2024/01/27 07:01:26;;;;;;;19.13;7.60;;;6.00;1.00;;;;;;5073065;28;20292;-69
2024/01/27 07:03:52;;;;;;;15.33;5.97;;;6.00;1.00;;;;;;5053857;28;20542;-77
2024/01/27 07:06:18;;;;;;;14.83;6.33;;;6.00;1.00;;;;;;5072651;28;20698;-75
2024/01/27 07:08:44;;;;;;;19.67;5.33;;;5.90;1.00;;;;;;5075877;28;20518;-78
2024/01/27 07:11:09;;;;;;;16.97;6.17;;;5.90;1.00;;;;;;5059267;28;20213;-77
2024/01/27 07:13:35;;;;;;;34.30;6.83;;;5.90;1.00;;;;;;5075973;28;20428;-69
2024/01/27 07:16:01;;;;;;;21.30;6.03;;;5.90;1.00;;;;;;5076785;28;20679;-69
2024/01/27 07:18:27;;;;;;;27.23;6.77;;;5.90;1.00;;;;;;5076642;28;20427;-72
2024/01/27 07:20:54;;;;;;;17.80;4.73;;;5.80;1.00;;;;;;5076741;28;20162;-70
2024/01/27 07:23:20;;;;;;;27.93;6.47;;;5.80;1.00;;;;;;5075886;28;20406;-78
2024/01/27 07:25:46;;;;;;;26.73;6.60;;;5.70;1.00;;;;;;5076471;28;20464;-71
2024/01/27 07:28:12;;;;;;;24.30;6.50;;;5.70;1.00;;;;;;5076554;28;20162;-78
2024/01/27 07:30:38;;;;;;;20.97;4.90;;;5.70;1.00;;;;;;5076401;28;20634;-78
2024/01/27 07:33:04;;;;;;;22.23;5.50;;;5.60;1.00;;;;;;5075582;28;20388;-69
2024/01/27 07:35:31;;;;;;;26.23;6.20;;;5.60;1.00;;;;;;5076299;28;20516;-70
2024/01/27 07:37:57;;;;;;;17.73;6.27;;;5.60;1.00;;;;;;5076552;28;20442;-70
2024/01/27 07:40:23;;;;;;;14.83;4.83;;;5.60;1.00;;;;;;5076350;28;20408;-73
2024/01/27 07:42:48;;;;;;;25.57;5.43;;;5.60;1.00;;;;;;5075589;28;20166;-76
2024/01/27 07:45:15;;;;;;;18.23;5.53;;;5.60;1.00;;;;;;5075915;28;20237;-72
2024/01/27 07:47:41;;;;;;;23.53;5.40;;;5.70;1.00;;;;;;5076223;28;20639;-78
2024/01/27 07:50:08;;;;;;;14.73;5.53;;;5.70;1.00;;;;;;5058507;28;20432;-78
2024/01/27 07:52:33;;;;;;;23.57;6.07;;;5.70;1.00;;;;;;5076096;28;20158;-78
2024/01/27 07:54:59;;;;;;;18.20;5.33;;;5.70;1.00;;;;;;5075069;28;20435;-70
2024/01/27 07:57:24;;;;;;;19.47;5.10;;;5.70;1.00;;;;;;5076013;28;20170;-77
2024/01/27 07:59:50;;;;;;;35.33;5.40;;;5.70;1.00;;;;;;5075965;28;20554;-78
2024/01/27 08:02:16;;;;;;;23.20;7.27;;;5.70;1.00;;;;;;5058213;28;20260;-71
2024/01/27 08:04:41;;;;;;;27.60;7.00;;;5.80;1.00;;;;;;5074853;28;20202;-77
2024/01/27 08:07:09;;;;;;;16.77;4.90;;;5.70;1.00;;;;;;5058004;28;20750;-70
2024/01/27 08:09:36;;;;;;;24.10;6.83;;;5.80;1.00;;;;;;5075845;28;20627;-73
2024/01/27 08:12:02;;;;;;;24.10;5.20;;;5.80;1.00;;;;;;5075803;28;20916;-66
2024/01/27 08:14:31;;;;;;;26.73;5.97;;;5.70;1.00;;;;;;5074876;28;20424;-77
2024/01/27 08:16:57;;;;;;;25.53;6.87;;;5.70;1.00;;;;;;5075584;28;20431;-70
2024/01/27 08:19:24;;;;;;;20.53;8.07;;;5.70;1.00;;;;;;5074348;28;20404;-76
2024/01/27 08:21:49;;;;;;;20.57;7.07;;;5.70;1.00;;;;;;5057860;28;20260;-76
2024/01/27 08:24:15;;;;;;;23.73;5.33;;;5.70;1.00;;;;;;5074518;28;20544;-76
2024/01/27 08:26:42;;;;;;;20.23;6.53;;;5.70;1.00;;;;;;5075437;28;20190;-76
2024/01/27 08:29:08;;;;;;;17.07;6.13;;;5.70;1.00;;;;;;5075373;28;20393;-75
2024/01/27 08:31:34;;;;;;;22.53;6.67;;;5.70;1.00;;;;;;5075521;28;20367;-72
2024/01/27 08:34:00;;;;;;;16.20;6.23;;;5.70;1.00;;;;;;5074314;28;20391;-70
2024/01/27 08:36:25;;;;;;;16.43;5.47;;;5.60;1.00;;;;;;5075291;28;20197;-70
2024/01/27 08:38:51;;;;;;;28.03;6.23;;;5.70;1.00;;;;;;5057346;28;20634;-70
2024/01/27 08:41:17;;;;;;;16.67;6.17;;;5.70;1.00;;;;;;5075170;28;20306;-76
2024/01/27 08:43:42;;;;;;;21.10;6.60;;;5.70;1.00;;;;;;5074317;28;20198;-71
2024/01/27 08:46:11;;;;;;;19.37;6.00;;;5.70;1.00;;;;;;5074981;28;20197;-76
2024/01/27 08:48:37;;;;;;;18.17;5.60;;;5.80;1.00;;;;;;5075033;28;20177;-74
2024/01/27 08:51:04;;;;;;;23.03;5.53;;;5.80;1.00;;;;;;5057505;28;20778;-70
2024/01/27 08:53:29;;;;;;;25.37;7.17;;;5.80;1.00;;;;;;5073782;28;20432;-76
2024/01/27 08:55:55;;;;;;;20.67;5.30;;;5.80;1.00;;;;;;5074772;28;20461;-71
2024/01/27 08:58:21;;;;;;;24.30;8.60;;;5.80;1.00;;;;;;5056961;28;20174;-70
2024/01/27 09:00:46;;;;;;;24.13;5.70;;;5.90;1.00;;;;;;5056924;28;20546;-76
2024/01/27 09:03:14;;;;;;;20.00;5.93;;;5.90;1.00;;;;;;5073756;28;20253;-76
2024/01/27 09:05:41;;;;;;;18.47;5.27;;;6.00;1.00;;;;;;5074344;28;20202;-76
2024/01/27 09:08:07;;;;;;;23.13;5.07;;;6.00;1.00;;;;;;5074652;28;20402;-76
2024/01/27 09:10:33;;;;;;;14.83;5.93;;;6.00;1.00;;;;;;5074620;28;20404;-75
2024/01/27 09:12:59;;;;;;;18.87;6.20;;;6.10;1.00;;;;;;5073737;28;20396;-70
2024/01/27 09:15:24;;;;;;;17.57;5.80;;;6.10;1.00;;;;;;5056740;28;20186;-70
2024/01/27 09:17:51;;;;;;;32.23;9.27;;;6.20;1.00;;;;;;5074441;28;20166;-71
2024/01/27 09:20:17;;;;;;;19.70;6.60;;;6.20;1.00;;;;;;5074518;28;20686;-76
2024/01/27 09:22:44;;;;;;;31.67;6.80;;;6.30;1.00;;;;;;5074321;28;20428;-71
2024/01/27 09:25:10;;;;;;;34.50;6.60;;;6.30;1.00;;;;;;5073398;28;20448;-71
2024/01/27 09:27:36;;;;;;;30.40;6.97;;;6.30;1.00;;;;;;5074202;28;20401;-70
2024/01/27 09:30:03;;;;;;;18.30;5.30;;;6.30;1.00;;;;;;5074003;28;20169;-76
2024/01/27 09:32:28;;;;;;;25.87;5.40;;;6.30;1.00;;;;;;5074168;28;20392;-77
2024/01/27 09:34:54;;;;;;;21.50;6.03;;;6.40;1.00;;;;;;5073221;28;20441;-77
2024/01/27 09:37:20;;;;;;;29.47;5.50;;;6.50;1.00;;;;;;5074057;28;20159;-76
2024/01/27 09:39:45;;;;;;;28.93;5.80;;;6.50;1.00;;;;;;5056353;28;20202;-76
2024/01/27 09:42:16;;;;;;;33.30;5.70;;;6.60;1.00;;;;;;5055817;28;20166;-76
2024/01/27 09:44:46;;;;;;;19.07;5.37;;;6.60;1.00;;;;;;5054958;28;20618;-74
2024/01/27 09:47:13;;;;;;;14.70;4.70;;;6.80;1.00;;;;;;5073985;28;20416;-70
2024/01/27 09:49:42;;;;;;;30.73;6.10;;;6.90;1.00;;;;;;5073804;28;20402;-77
2024/01/27 09:52:08;;;;;;;24.20;4.87;;;6.90;1.00;;;;;;5073928;28;20408;-76
2024/01/27 09:54:36;;;;;;;35.73;7.13;;;6.90;1.00;;;;;;5055233;28;20983;-76
2024/01/27 09:57:02;;;;;;;20.47;4.87;;;6.90;1.00;;;;;;5073765;28;20439;-76
2024/01/27 09:59:29;;;;;;;19.73;5.73;;;7.00;1.00;;;;;;5073397;28;20912;-70
2024/01/27 10:01:55;;;;;;;14.80;5.77;;;7.00;1.00;;;;;;5073596;28;20400;-76
2024/01/27 10:04:22;;;;;;;27.60;6.60;;;7.00;1.00;;;;;;5054543;28;20972;-76
2024/01/27 10:06:50;;;;;;;23.17;7.17;;;7.10;1.00;;;;;;5073533;28;20427;-70
2024/01/27 10:09:17;;;;;;;39.07;6.87;;;7.20;1.00;;;;;;5073570;28;20398;-70
2024/01/27 10:11:47;;;;;;;18.27;5.40;;;7.30;1.00;;;;;;5073410;28;20397;-71
2024/01/27 10:14:13;;;;;;;33.20;7.30;;;7.30;1.00;;;;;;5072596;28;20424;-76
2024/01/27 10:16:44;;;;;;;35.37;6.83;;;7.30;1.00;;;;;;5073470;28;20396;-72
2024/01/27 10:19:20;;;;;;;21.90;5.70;;;7.20;1.00;;;;;;5073465;28;20533;-76
2024/01/27 10:21:47;;;;;;;22.90;6.70;;;7.20;1.00;;;;;;5073379;28;20796;-70
2024/01/27 10:24:12;;;;;;;18.80;7.03;;;7.10;1.00;;;;;;5072261;28;20951;-76
2024/01/27 10:26:38;;;;;;;18.53;6.60;;;7.20;1.00;;;;;;5073361;28;20479;-75
2024/01/27 10:29:04;;;;;;;16.73;5.33;;;7.20;1.00;;;;;;5073344;28;20166;-76
2024/01/27 10:31:34;;;;;;;21.63;6.17;;;7.30;1.00;;;;;;5055283;28;20421;-77
2024/01/27 10:34:04;;;;;;;32.83;6.00;;;7.30;1.00;;;;;;5072176;28;20158;-76
2024/01/27 10:36:44;;;;;;;21.00;9.33;;;7.20;1.00;;;;;;5073255;28;20397;-70
2024/01/27 10:39:17;;;;;;;20.23;7.80;;;7.20;1.00;;;;;;5073281;28;20807;-76
2024/01/27 10:41:47;;;;;;;23.30;5.80;;;7.30;1.00;;;;;;5072813;28;20397;-77
2024/01/27 10:44:18;;;;;;;25.27;7.63;;;7.30;1.00;;;;;;5054015;28;20774;-70
2024/01/27 10:46:46;;;;;;;30.87;8.30;;;7.30;1.00;;;;;;5073188;28;20406;-76
2024/01/27 10:49:18;;;;;;;25.93;7.30;;;7.30;1.00;;;;;;5055179;28;20746;-73
2024/01/27 10:51:55;;;;;;;21.13;6.87;;;7.30;1.00;;;;;;5073145;28;20796;-76
2024/01/27 10:54:26;;;;;;;36.37;7.83;;;7.30;1.00;;;;;;5072052;28;20474;-76
2024/01/27 10:56:54;;;;;;;33.83;6.37;;;7.30;1.00;;;;;;5072998;28;20407;-77
2024/01/27 10:59:22;;;;;;;23.07;6.93;;;7.30;1.00;;;;;;5073072;28;20500;-77
2024/01/27 11:01:53;;;;;;;17.03;4.70;;;7.40;1.00;;;;;;5072967;28;20927;-75
2024/01/27 11:04:20;;;;;;;27.33;5.83;;;7.30;1.00;;;;;;5071843;28;20431;-70
2024/01/27 11:06:48;;;;;;;25.80;6.20;;;7.40;1.00;;;;;;5072882;28;20416;-71
2024/01/27 11:09:14;;;;;;;25.13;7.00;;;7.50;1.00;;;;;;5073058;28;20397;-70
2024/01/27 11:11:45;;;;;;;17.60;5.20;;;7.50;1.00;;;;;;5072970;28;20883;-77
2024/01/27 11:14:11;;;;;;;19.23;6.40;;;7.60;1.00;;;;;;5071884;28;20905;-76
2024/01/27 11:16:43;;;;;;;23.27;9.27;;;7.50;1.00;;;;;;5055084;28;20944;-77
2024/01/27 11:19:13;;;;;;;21.40;5.20;;;7.50;1.00;;;;;;5072890;28;20408;-76
2024/01/27 11:21:39;;;;;;;26.50;5.40;;;7.50;1.00;;;;;;5072831;28;20410;-76
2024/01/27 11:24:15;;;;;;;17.03;5.23;;;7.60;1.00;;;;;;5071662;28;20433;-77
2024/01/27 11:26:42;;;;;;;11.00;5.30;;;7.50;1.00;;;;;;5072610;28;20393;-76
2024/01/27 11:29:19;;;;;;;22.43;8.43;;;7.50;1.00;;;;;;5072664;28;20402;-70
2024/01/27 11:31:45;;;;;;;22.80;6.20;;;7.50;1.00;;;;;;5072744;28;20479;-72
2024/01/27 11:34:18;;;;;;;15.20;5.33;;;7.50;1.00;;;;;;5071749;28;20504;-71
2024/01/27 11:36:44;;;;;;;23.57;8.00;;;7.50;1.00;;;;;;5072602;28;20403;-76
2024/01/27 11:39:29;;;;;;;15.23;5.00;;;7.60;1.00;;;;;;5072556;28;20451;-77
2024/01/27 11:42:05;;;;;;;17.10;6.20;;;7.70;1.00;;;;;;5072630;28;20956;-70
2024/01/27 11:44:33;;;;;;;24.20;4.90;;;7.70;1.00;;;;;;5071484;28;20452;-70
2024/01/27 11:46:59;;;;;;;21.20;6.37;;;7.70;1.00;;;;;;5072571;28;20466;-77
2024/01/27 11:49:25;;;;;;;20.53;5.37;;;7.80;1.00;;;;;;5072665;28;20734;-76
2024/01/27 11:51:51;;;;;;;18.40;6.00;;;7.90;1.00;;;;;;5072428;28;20408;-69
2024/01/27 11:54:17;;;;;;;17.60;5.70;;;7.90;1.00;;;;;;5055828;28;20665;-75
2024/01/27 11:56:42;;;;;;;23.67;6.47;;;8.00;1.00;;;;;;5058254;28;20279;-77
2024/01/27 11:59:10;;;;;;;20.43;5.80;;;8.10;1.00;;;;;;5058381;28;20449;-70
2024/01/27 12:01:36;;;;;;;20.37;6.37;;;8.00;1.00;;;;;;5058312;28;20205;-70
2024/01/27 12:04:04;;;;;;;19.43;5.53;;;8.00;1.00;;;;;;5074925;28;20459;-70
2024/01/27 12:06:30;;;;;;;19.50;6.60;;;8.00;1.00;;;;;;5075721;28;20511;-76
2024/01/27 12:08:57;;;;;;;14.80;5.20;;;8.00;99.90;;;;;;5075819;28;20408;-76
2024/01/27 12:11:26;;;;;;;15.13;6.23;;;8.00;99.90;;;;;;5075879;28;20477;-70
2024/01/27 12:13:52;;;;;;;18.37;5.87;;;8.00;99.90;;;;;;5074832;28;20385;-76
2024/01/27 12:16:18;;;;;;;41.20;7.80;;;8.00;99.90;;;;;;5057704;28;20975;-76
2024/01/27 12:18:45;;;;;;;20.20;5.77;;;8.00;99.90;;;;;;5057681;28;20503;-69
2024/01/27 12:21:11;;;;;;;29.73;6.40;;;8.00;99.90;;;;;;5086430;28;20446;-76
2024/01/27 12:23:47;;;;;;;22.93;5.77;;;8.10;99.90;;;;;;5076563;28;20927;-76
2024/01/27 12:26:15;;;;;;;20.30;6.00;;;8.10;99.90;;;;;;5095823;28;20234;-70
2024/01/27 12:28:40;;;;;;;17.20;6.80;;;8.10;99.90;;;;;;5095572;28;20399;-76
2024/01/27 12:31:06;;;;;;;23.20;7.03;;;8.10;99.90;;;;;;5095607;28;20475;-76
2024/01/27 12:33:32;;;;;;;24.67;5.60;;;8.20;99.90;;;;;;5094782;28;20251;-70
2024/01/27 12:35:57;;;;;;;14.00;5.97;;;8.10;99.90;;;;;;5095556;28;20182;-70
2024/01/27 12:38:23;;;;;;;10.03;4.93;;;8.00;99.90;;;;;;5095640;28;20521;-76
2024/01/27 12:40:49;;;;;;;21.80;6.20;;;8.00;99.90;;;;;;5095463;28;20161;-70
2024/01/27 12:43:15;;;;;;;13.97;5.60;;;8.00;99.90;;;;;;5094504;28;20179;-70
2024/01/27 12:45:41;;;;;;;22.60;5.97;;;8.00;99.90;;;;;;5095316;28;20247;-70
2024/01/27 12:48:07;;;;;;;15.63;5.50;;;7.90;99.90;;;;;;5095324;28;20405;-76
2024/01/27 12:50:33;;;;;;;12.40;5.10;;;7.90;99.90;;;;;;5095314;28;20165;-76